Time;durP1;ratioP1;P1;durP2;ratioP2;P2;SDS_P1;SDS_P2;PMS_P1;PMS_P2;Temp;Humidity;BMP_temperature;BMP_pressure;BME280_temperature;BME280_humidity;BME280_pressure;Samples;Min_cycle;Max_cycle;Signal;HPM_P1;HPM_P2
2021/12/04 11:53:58;;;;;;;11.95;5.32;;;11.10;94.70;;;;;;5975893;23;20043;-93
2021/12/04 11:56:45;;;;;;;14.65;5.68;;;11.10;93.40;;;;;;5995515;23;20011;-92
2021/12/04 12:02:46;;;;;;;18.00;7.38;;;11.20;95.40;;;;;;6070407;23;20066;-92
2021/12/04 12:06:01;;;;;;;11.73;5.45;;;11.40;94.20;;;;;;6069058;23;20442;-93
2021/12/04 12:09:19;;;;;;;;;;;;;;;;;;;;;
2021/12/04 12:18:44;;;;;;;12.35;5.95;;;11.90;94.40;;;;;;6101142;23;20064;-92
2021/12/04 12:22:22;;;;;;;7.28;4.15;;;12.10;93.20;;;;;;6100134;23;20085;-93
2021/12/04 12:37:35;;;;;;;6.78;3.35;;;13.30;87.60;;;;;;6189508;23;20001;-91
2021/12/04 12:40:19;;;;;;;7.00;3.38;;;13.30;89.50;;;;;;6188037;23;20005;-91
2021/12/04 12:42:54;;;;;;;14.77;5.97;;;13.30;88.40;;;;;;6189038;23;20401;-91
2021/12/04 12:45:32;;;;;;;10.48;4.93;;;13.40;81.90;;;;;;6188838;23;20004;-91
2021/12/04 12:48:11;;;;;;;10.30;5.18;;;13.20;86.80;;;;;;6188478;23;20005;-92
2021/12/04 12:50:47;;;;;;;10.30;5.20;;;13.10;83.00;;;;;;6188565;23;20490;-91
2021/12/04 12:53:44;;;;;;;8.13;4.43;;;12.90;84.60;;;;;;6188449;23;20028;-91
2021/12/04 12:56:26;;;;;;;8.13;3.67;;;13.00;87.60;;;;;;6187814;23;20005;-91
2021/12/04 13:13:45;;;;;;;11.88;5.90;;;12.80;81.40;;;;;;6189246;23;20012;-91
2021/12/04 13:16:43;;;;;;;14.70;6.65;;;12.70;84.10;;;;;;6187360;23;20475;-91
2021/12/04 13:19:31;;;;;;;27.33;10.63;;;12.70;82.80;;;;;;6187337;23;20005;-91
2021/12/04 13:22:19;;;;;;;29.02;12.38;;;12.80;85.30;;;;;;6187360;23;20032;-91
2021/12/04 13:24:48;;;;;;;29.52;12.05;;;12.80;84.00;;;;;;6177010;23;20079;-91
2021/12/04 13:30:16;;;;;;;26.23;12.15;;;12.80;82.20;;;;;;6188608;23;20008;-91
2021/12/04 13:33:10;;;;;;;26.38;11.63;;;12.90;83.60;;;;;;6178451;23;20005;-91
2021/12/04 13:39:18;;;;;;;35.90;14.80;;;12.90;84.90;;;;;;6189072;23;20569;-91
2021/12/04 13:41:53;;;;;;;42.17;17.13;;;13.00;84.10;;;;;;6185180;23;20030;-92
2021/12/04 13:44:27;;;;;;;45.08;17.30;;;13.00;83.80;;;;;;6188449;23;20001;-91
2021/12/04 13:47:08;;;;;;;53.95;19.95;;;13.00;84.40;;;;;;6188226;23;20033;-91
2021/12/04 13:49:53;;;;;;;43.70;17.80;;;13.00;84.90;;;;;;6187304;23;20012;-91
2021/12/04 13:52:25;;;;;;;42.80;19.00;;;12.90;84.20;;;;;;6188269;23;20001;-92
2021/12/04 13:55:16;;;;;;;41.65;16.38;;;12.90;84.60;;;;;;6187553;23;20143;-91
2021/12/04 13:57:44;;;;;;;50.85;19.20;;;12.80;84.30;;;;;;6187491;23;20332;-91
2021/12/04 14:00:24;;;;;;;48.50;18.80;;;12.50;84.60;;;;;;6183076;23;20428;-91
2021/12/04 14:02:58;;;;;;;51.58;19.58;;;12.30;85.90;;;;;;6159949;23;20001;-91
2021/12/04 14:05:43;;;;;;;59.05;22.40;;;12.10;86.20;;;;;;6187415;23;20021;-91
2021/12/04 14:08:12;;;;;;;74.13;27.73;;;11.90;87.70;;;;;;6188532;23;20032;-91
2021/12/04 14:10:46;;;;;;;63.10;24.65;;;11.80;87.10;;;;;;6185066;23;20005;-91
2021/12/04 14:13:34;;;;;;;61.30;23.58;;;11.60;87.80;;;;;;6190124;23;20008;-90
2021/12/04 14:16:02;;;;;;;71.95;27.45;;;11.20;90.20;;;;;;6188684;23;20001;-91
2021/12/04 14:18:29;;;;;;;70.07;25.67;;;10.90;90.60;;;;;;6187729;23;20036;-90
2021/12/04 14:21:03;;;;;;;64.72;25.50;;;10.60;91.20;;;;;;6185432;23;20013;-91
2021/12/04 14:23:42;;;;;;;70.10;27.58;;;10.40;91.70;;;;;;6187045;23;20008;-90
2021/12/04 14:26:13;;;;;;;73.15;29.83;;;10.10;92.10;;;;;;6185663;23;20011;-90
2021/12/04 14:28:42;;;;;;;79.20;30.75;;;10.10;91.80;;;;;;6186134;23;20005;-90
2021/12/04 14:31:15;;;;;;;71.28;28.55;;;10.00;92.30;;;;;;6188060;23;20001;-90
2021/12/04 14:33:51;;;;;;;73.78;28.15;;;9.80;92.00;;;;;;6187274;23;20001;-90
2021/12/04 14:36:22;;;;;;;66.65;27.88;;;9.40;93.10;;;;;;6186940;23;20333;-91
2021/12/04 14:38:48;;;;;;;78.22;29.13;;;9.00;93.60;;;;;;6187291;23;20005;-90
2021/12/04 14:41:24;;;;;;;61.70;24.40;;;8.80;94.10;;;;;;6188144;23;20309;-91
2021/12/04 14:44:13;;;;;;;59.95;24.83;;;8.70;94.30;;;;;;6186074;23;20002;-91
2021/12/04 14:46:45;;;;;;;64.53;24.73;;;8.70;95.10;;;;;;6187160;23;20005;-91
2021/12/04 14:49:18;;;;;;;82.65;29.67;;;8.60;95.20;;;;;;6187064;23;20005;-90
2021/12/04 14:51:50;;;;;;;78.35;30.23;;;8.50;95.80;;;;;;6187199;23;20027;-90
2021/12/04 14:54:42;;;;;;;88.95;31.65;;;8.40;95.50;;;;;;6187028;23;20080;-90
2021/12/04 14:57:24;;;;;;;78.93;30.17;;;8.40;96.00;;;;;;6101418;23;20002;-90
2021/12/04 15:00:26;;;;;;;94.05;36.85;;;8.20;96.30;;;;;;6186244;23;20005;-92
2021/12/04 15:03:12;;;;;;;108.97;40.75;;;8.20;96.50;;;;;;6187208;23;20371;-90
2021/12/04 15:05:49;;;;;;;109.45;40.58;;;8.00;96.70;;;;;;6186455;23;20021;-89
2021/12/04 15:08:22;;;;;;;131.15;47.55;;;7.80;97.30;;;;;;6187262;23;20061;-90
2021/12/04 15:10:55;;;;;;;148.57;50.78;;;7.80;97.70;;;;;;6187351;23;20033;-90
2021/12/04 15:13:35;;;;;;;185.98;61.30;;;7.70;98.00;;;;;;6187315;23;20420;-88
2021/12/04 15:16:31;;;;;;;138.45;46.97;;;7.50;98.10;;;;;;6187264;23;20005;-88
2021/12/04 15:19:22;;;;;;;130.63;45.15;;;7.30;98.80;;;;;;6187068;23;20132;-90
2021/12/04 15:22:07;;;;;;;114.85;41.55;;;7.10;99.60;;;;;;6187941;23;20084;-91
2021/12/04 15:24:39;;;;;;;107.70;37.75;;;6.90;99.90;;;;;;6183434;23;20032;-90
2021/12/04 15:27:18;;;;;;;103.30;38.72;;;6.70;99.90;;;;;;6186856;23;20005;-91
2021/12/04 15:29:55;;;;;;;109.40;41.22;;;6.70;99.90;;;;;;6187383;23;20009;-91
2021/12/04 15:32:28;;;;;;;110.47;40.70;;;6.70;99.90;;;;;;6187221;23;20194;-90
2021/12/04 15:35:51;;;;;;;114.22;39.47;;;6.60;99.90;;;;;;6187007;23;20005;-90
2021/12/04 15:39:05;;;;;;;129.88;45.50;;;6.50;99.90;;;;;;6184053;23;20009;-90
2021/12/04 15:50:46;;;;;;;125.80;42.42;;;6.20;99.90;;;;;;6199813;23;20020;-91
2021/12/04 15:53:18;;;;;;;119.28;38.75;;;6.20;99.90;;;;;;6188592;23;20005;-91
2021/12/04 15:56:06;;;;;;;117.38;40.70;;;6.30;99.90;;;;;;6189498;23;20012;-90
2021/12/04 15:58:35;;;;;;;102.55;38.17;;;6.40;99.90;;;;;;6189077;23;20001;-92
2021/12/04 16:01:14;;;;;;;120.30;38.25;;;6.40;99.90;;;;;;6189047;23;20451;-91
2021/12/04 16:03:50;;;;;;;112.57;36.78;;;6.40;99.90;;;;;;6187500;23;20017;-91
2021/12/04 16:06:15;;;;;;;98.50;32.97;;;6.40;99.90;;;;;;6189120;23;20005;-91
2021/12/04 16:08:48;;;;;;;131.18;45.70;;;6.50;99.90;;;;;;6189035;23;20166;-91
2021/12/04 16:11:25;;;;;;;123.70;42.38;;;6.40;99.90;;;;;;6188761;23;20425;-91
2021/12/04 16:14:01;;;;;;;119.60;41.53;;;6.40;99.90;;;;;;6189570;23;20087;-92
2021/12/04 16:16:29;;;;;;;117.38;40.83;;;6.40;99.90;;;;;;6188012;23;20001;-91
2021/12/04 16:18:59;;;;;;;120.75;39.58;;;6.30;99.90;;;;;;6187978;23;20020;-91
2021/12/04 16:21:32;;;;;;;124.68;43.63;;;6.30;99.90;;;;;;6187583;23;20009;-91
2021/12/04 16:24:07;;;;;;;175.40;52.78;;;6.20;99.90;;;;;;6189365;23;20009;-91
2021/12/04 16:26:38;;;;;;;119.57;40.15;;;6.10;99.90;;;;;;6188842;23;20009;-92
2021/12/04 16:29:10;;;;;;;123.10;42.05;;;6.00;99.90;;;;;;6188545;23;20324;-89
2021/12/04 16:37:34;;;;;;;158.00;50.85;;;6.00;99.90;;;;;;6190065;23;20044;-89
2021/12/04 16:40:11;;;;;;;143.38;48.45;;;6.00;99.90;;;;;;6188081;23;20005;-90
2021/12/04 16:42:40;;;;;;;155.65;50.90;;;6.00;99.90;;;;;;6188308;23;20451;-89
2021/12/04 16:45:13;;;;;;;115.97;43.20;;;6.00;99.90;;;;;;6187329;23;20143;-90
2021/12/04 16:47:46;;;;;;;125.57;42.92;;;5.90;99.90;;;;;;6188582;23;20021;-90
2021/12/04 16:50:21;;;;;;;233.45;75.10;;;5.80;99.90;;;;;;6186044;23;20023;-90
2021/12/04 16:58:40;;;;;;;159.93;51.58;;;5.60;99.90;;;;;;6189480;23;20056;-90
2021/12/04 17:01:09;;;;;;;134.77;46.92;;;5.50;99.90;;;;;;6188573;23;20017;-90
2021/12/04 17:03:42;;;;;;;134.98;44.47;;;5.30;99.90;;;;;;6187969;23;20032;-89
2021/12/04 17:06:20;;;;;;;132.77;43.78;;;5.30;99.90;;;;;;6187304;23;20009;-90
2021/12/04 17:08:46;;;;;;;112.63;37.85;;;5.30;99.90;;;;;;6187113;23;20009;-90
2021/12/04 17:11:12;;;;;;;126.93;43.35;;;5.30;99.90;;;;;;6188318;23;19997;-90
2021/12/04 17:13:38;;;;;;;111.63;38.53;;;5.30;99.90;;;;;;6188080;23;20012;-91
2021/12/04 17:16:14;;;;;;;94.28;33.67;;;5.30;99.90;;;;;;6188539;23;20331;-90
2021/12/04 17:18:56;;;;;;;118.60;39.42;;;5.30;99.90;;;;;;6188279;23;20424;-91
2021/12/04 17:21:28;;;;;;;111.03;37.00;;;5.30;99.90;;;;;;6188680;23;20325;-90
2021/12/04 17:23:56;;;;;;;106.22;35.83;;;5.20;99.90;;;;;;6187940;23;20009;-90
2021/12/04 17:26:25;;;;;;;120.22;37.92;;;5.20;99.90;;;;;;6187778;23;20043;-90
2021/12/04 17:29:13;;;;;;;122.38;39.55;;;5.00;99.90;;;;;;6188833;23;20044;-90
2021/12/04 17:31:47;;;;;;;113.15;35.72;;;5.00;99.90;;;;;;6163344;23;20005;-90
2021/12/04 17:34:14;;;;;;;118.53;42.65;;;5.00;99.90;;;;;;6188773;23;20001;-90
2021/12/04 17:36:47;;;;;;;118.53;43.60;;;5.00;99.90;;;;;;6188410;23;20001;-90
2021/12/04 17:39:19;;;;;;;127.28;41.00;;;5.00;99.90;;;;;;6187823;23;20090;-90
2021/12/04 17:41:59;;;;;;;;;;;;;;;;;;;;;
2021/12/04 17:44:26;;;;;;;127.57;41.72;;;4.90;99.90;;;;;;6189212;23;20080;-90
2021/12/04 17:46:59;;;;;;;124.82;40.53;;;4.80;99.90;;;;;;6187375;23;20008;-90
2021/12/04 17:49:32;;;;;;;114.20;37.97;;;4.90;99.90;;;;;;6187259;23;20009;-90
2021/12/04 17:52:06;;;;;;;104.38;36.53;;;4.90;99.90;;;;;;6188235;23;20059;-90
2021/12/04 17:54:38;;;;;;;107.80;37.97;;;4.80;99.90;;;;;;6187150;23;20012;-90
2021/12/04 17:57:18;;;;;;;133.23;43.78;;;4.80;99.90;;;;;;6188021;23;20005;-90
2021/12/04 17:59:52;;;;;;;115.03;40.45;;;4.70;99.90;;;;;;6186713;23;20035;-90
2021/12/04 18:02:20;;;;;;;132.55;45.05;;;4.70;99.90;;;;;;6187064;23;20488;-90
2021/12/04 18:04:55;;;;;;;88.70;34.90;;;4.60;99.90;;;;;;6187150;23;20020;-90
2021/12/04 18:07:28;;;;;;;108.18;33.72;;;4.60;99.90;;;;;;6187955;23;20036;-90
2021/12/04 18:10:05;;;;;;;136.95;46.65;;;4.60;99.90;;;;;;6187912;23;20013;-91
2021/12/04 18:12:52;;;;;;;100.20;37.35;;;4.60;99.90;;;;;;6187169;23;20001;-90
2021/12/04 18:15:44;;;;;;;125.25;47.67;;;4.70;99.90;;;;;;6186629;23;20028;-90
2021/12/04 18:18:19;;;;;;;146.00;49.90;;;4.80;99.90;;;;;;6187172;23;20001;-90
2021/12/04 18:20:52;;;;;;;147.57;50.28;;;4.70;99.90;;;;;;6187561;23;20109;-91
2021/12/04 18:23:18;;;;;;;109.38;37.90;;;4.60;99.90;;;;;;6188521;23;20179;-90
2021/12/04 18:26:02;;;;;;;114.30;40.42;;;4.70;99.90;;;;;;6190686;23;20001;-90
2021/12/04 18:28:38;;;;;;;;;;;;;;;;;;;;;
2021/12/04 18:31:18;;;;;;;116.18;42.42;;;4.70;99.90;;;;;;6188862;23;20081;-90
2021/12/04 18:33:44;;;;;;;133.20;49.30;;;4.70;99.90;;;;;;6187157;23;20008;-90
2021/12/04 18:36:10;;;;;;;156.75;54.67;;;4.80;99.90;;;;;;6187352;23;20080;-90
2021/12/04 18:38:41;;;;;;;157.10;55.60;;;4.70;99.90;;;;;;6187345;23;20012;-90
2021/12/04 18:41:17;;;;;;;120.45;41.70;;;4.70;99.90;;;;;;6186781;23;20005;-90
2021/12/04 18:43:48;;;;;;;;;;;4.60;99.90;;;;;;6187257;23;20015;-90
2021/12/04 18:46:20;;;;;;;115.93;43.40;;;4.60;99.90;;;;;;6187764;23;19916;-90
2021/12/04 18:48:55;;;;;;;127.50;44.20;;;4.60;99.90;;;;;;6186866;23;20017;-90
2021/12/04 18:51:23;;;;;;;127.80;47.03;;;4.60;99.90;;;;;;6187379;23;20001;-90
2021/12/04 18:53:51;;;;;;;120.40;44.15;;;4.60;99.90;;;;;;6187286;23;20001;-90
2021/12/04 18:56:23;;;;;;;117.25;41.72;;;4.60;99.90;;;;;;6184778;23;20371;-90
2021/12/04 18:58:49;;;;;;;97.32;37.53;;;4.40;99.90;;;;;;6185959;23;20001;-90
2021/12/04 19:01:31;;;;;;;106.32;40.17;;;4.40;99.90;;;;;;6187413;23;20017;-91
2021/12/04 19:04:15;;;;;;;121.38;41.10;;;4.50;99.90;;;;;;6186973;23;20478;-90
2021/12/04 19:06:52;;;;;;;138.98;46.95;;;4.60;99.90;;;;;;6186645;23;20045;-90
2021/12/04 19:09:18;;;;;;;123.03;44.22;;;4.60;99.90;;;;;;6187484;23;20009;-91
2021/12/04 19:11:50;;;;;;;111.90;39.55;;;4.50;99.90;;;;;;6189825;23;20316;-90
2021/12/04 19:14:19;;;;;;;109.47;39.63;;;4.50;99.90;;;;;;6190224;23;20013;-90
2021/12/04 19:16:51;;;;;;;137.20;46.20;;;4.40;99.90;;;;;;6189379;23;20015;-90
2021/12/04 19:19:18;;;;;;;114.63;42.63;;;4.40;99.90;;;;;;6190119;23;20400;-90
2021/12/04 19:21:52;;;;;;;118.10;39.50;;;4.30;99.90;;;;;;6190240;23;20008;-90
2021/12/04 19:24:21;;;;;;;119.93;40.50;;;4.20;99.90;;;;;;6189962;23;20383;-90
2021/12/04 19:26:54;;;;;;;124.70;42.67;;;4.30;99.90;;;;;;6189383;23;20056;-90
2021/12/04 19:29:22;;;;;;;120.75;40.90;;;4.30;99.90;;;;;;6189919;23;20067;-90
2021/12/04 19:32:09;;;;;;;118.85;41.60;;;4.30;99.90;;;;;;6189220;23;20440;-90
2021/12/04 19:51:49;;;;;;;103.47;34.17;;;4.20;99.90;;;;;;6190872;23;20088;-91
2021/12/04 19:54:31;;;;;;;105.00;37.67;;;4.20;99.90;;;;;;6189002;23;20088;-90
2021/12/04 19:57:08;;;;;;;119.70;41.40;;;4.20;99.90;;;;;;6189213;23;20004;-90
2021/12/04 19:59:39;;;;;;;103.45;38.45;;;4.10;99.90;;;;;;6189006;23;20032;-90
2021/12/04 20:04:59;;;;;;;118.40;42.10;;;3.70;99.90;;;;;;6195608;23;20017;-90
2021/12/04 20:15:24;;;;;;;103.32;34.88;;;3.60;99.90;;;;;;6189432;23;20056;-90
2021/12/04 20:17:53;;;;;;;91.00;35.33;;;3.70;99.90;;;;;;6188951;23;20005;-90
2021/12/04 20:20:26;;;;;;;82.50;31.10;;;3.70;99.90;;;;;;6188538;23;20071;-90
2021/12/04 20:22:55;;;;;;;96.95;32.38;;;3.70;99.90;;;;;;6187604;23;20009;-90
2021/12/04 20:25:35;;;;;;;97.03;34.20;;;3.70;99.90;;;;;;6188919;23;20005;-90
2021/12/04 20:28:05;;;;;;;99.25;36.72;;;3.70;99.90;;;;;;6188003;23;20066;-91
2021/12/04 20:30:56;;;;;;;86.28;31.20;;;3.70;99.90;;;;;;6189494;23;20008;-90
2021/12/04 20:33:34;;;;;;;167.50;52.28;;;3.70;99.90;;;;;;6187757;23;20005;-90
2021/12/04 21:04:11;;;;;;;122.97;38.80;;;3.40;99.90;;;;;;6191224;23;20320;-91
2021/12/04 21:09:39;;;;;;;138.57;47.00;;;3.50;99.90;;;;;;6198222;23;20024;-90
2021/12/04 21:51:57;;;;;;;137.32;41.30;;;3.30;99.90;;;;;;6189176;23;20011;-90
2021/12/04 21:54:29;;;;;;;139.43;44.75;;;3.20;99.90;;;;;;6187552;23;20425;-91
2021/12/04 22:11:10;;;;;;;84.32;28.70;;;2.90;99.90;;;;;;6189481;23;20031;-91
2021/12/04 22:13:51;;;;;;;76.60;26.58;;;3.00;99.90;;;;;;6181231;23;20005;-91
2021/12/04 22:16:51;;;;;;;84.10;29.20;;;3.00;99.90;;;;;;6187952;23;20052;-91
2021/12/04 22:58:19;;;;;;;125.07;39.10;;;2.70;99.90;;;;;;6199029;23;20001;-90
2021/12/04 23:01:00;;;;;;;97.85;35.90;;;2.70;99.90;;;;;;6187166;23;20009;-91
2021/12/04 23:14:24;;;;;;;126.10;40.40;;;2.70;99.90;;;;;;6188393;23;20080;-91
2021/12/04 23:36:27;;;;;;;104.07;34.78;;;2.90;99.90;;;;;;6189049;23;20032;-91
2021/12/04 23:53:33;;;;;;;97.30;31.38;;;3.10;99.90;;;;;;6189124;23;20490;-91
